createdAt,value
2022-11-24T00:00:02.151Z,0.88
2022-11-24T00:00:15.702Z,0.86
2022-11-24T00:00:36.581Z,0.87
2022-11-24T00:01:12.559Z,0.86
2022-11-24T00:01:27.040Z,0.86
2022-11-24T00:01:39.824Z,0.88
2022-11-24T00:01:52.695Z,0.89
2022-11-24T00:02:06.703Z,0.88
2022-11-24T00:02:19.649Z,0.89
2022-11-24T00:02:32.652Z,0.90
2022-11-24T00:02:45.628Z,0.91
2022-11-24T00:02:58.477Z,0.90
2022-11-24T00:03:11.513Z,0.92
2022-11-24T00:03:24.608Z,0.93
2022-11-24T00:03:39.197Z,0.93
2022-11-24T00:03:56.607Z,0.93
2022-11-24T00:04:12.123Z,0.94
2022-11-24T00:04:24.992Z,0.95
2022-11-24T00:04:37.785Z,0.95
2022-11-24T00:04:50.631Z,0.95
2022-11-24T00:05:04.495Z,0.97
2022-11-24T00:05:17.642Z,0.97
2022-11-24T00:05:30.362Z,0.97
2022-11-24T00:05:43.176Z,0.97
2022-11-24T00:05:55.928Z,0.96
2022-11-24T00:06:11.111Z,0.97
2022-11-24T00:06:25.314Z,0.98
2022-11-24T00:06:38.359Z,0.97
2022-11-24T00:06:51.114Z,0.96
2022-11-24T00:07:03.858Z,0.96
2022-11-24T00:07:16.705Z,0.96
2022-11-24T00:07:29.618Z,0.95
2022-11-24T00:07:42.721Z,0.93
2022-11-24T00:07:55.609Z,0.92
2022-11-24T00:08:09.234Z,0.92
2022-11-24T00:08:23.708Z,0.91
2022-11-24T00:08:37.471Z,0.91
2022-11-24T00:08:50.761Z,0.91
2022-11-24T00:09:05.153Z,0.91
2022-11-24T00:09:18.183Z,0.91
2022-11-24T00:09:30.938Z,0.90
2022-11-24T00:09:44.785Z,0.91
2022-11-24T00:09:57.613Z,0.91
2022-11-24T00:10:10.672Z,0.90
2022-11-24T00:10:23.582Z,0.91
2022-11-24T00:10:37.813Z,0.92
2022-11-24T00:10:50.528Z,0.91
2022-11-24T00:11:05.564Z,0.91
2022-11-24T00:11:22.240Z,0.91
2022-11-24T00:11:36.802Z,0.92
2022-11-24T00:11:49.600Z,0.92
2022-11-24T00:12:03.142Z,0.93
2022-11-24T00:12:15.909Z,0.92
2022-11-24T00:12:28.746Z,0.92
2022-11-24T00:12:41.668Z,0.92
2022-11-24T00:12:54.490Z,0.93
2022-11-24T00:13:08.523Z,0.93
2022-11-24T00:13:21.366Z,0.93
2022-11-24T00:13:34.841Z,0.94
2022-11-24T00:13:48.055Z,0.93
2022-11-24T00:14:02.071Z,0.95
2022-11-24T00:14:14.899Z,0.96
2022-11-24T00:14:28.956Z,0.97
2022-11-24T00:14:41.857Z,0.96
2022-11-24T00:14:54.585Z,0.97
2022-11-24T00:15:08.107Z,0.97
2022-11-24T00:15:21.862Z,0.98
2022-11-24T00:15:34.599Z,0.96
2022-11-24T00:15:47.405Z,0.96
2022-11-24T00:16:12.059Z,0.97
2022-11-24T00:16:27.847Z,0.96
2022-11-24T00:16:40.888Z,0.97
2022-11-24T00:16:54.104Z,0.97
2022-11-24T00:17:07.225Z,0.98
2022-11-24T00:17:20.045Z,0.98
2022-11-24T00:17:33.150Z,0.98
2022-11-24T00:17:45.892Z,0.97
2022-11-24T00:17:58.688Z,0.98
2022-11-24T00:18:12.502Z,0.97
2022-11-24T00:18:25.289Z,0.97
2022-11-24T00:18:38.674Z,0.97
2022-11-24T00:18:53.365Z,0.97
2022-11-24T00:19:09.306Z,0.96
2022-11-24T00:19:23.275Z,0.97
2022-11-24T00:19:36.126Z,0.96
2022-11-24T00:19:48.909Z,0.95
2022-11-24T00:20:01.847Z,0.95
2022-11-24T00:20:15.000Z,0.96
2022-11-24T00:20:27.805Z,0.96
2022-11-24T00:20:40.578Z,0.95
2022-11-24T00:20:53.682Z,0.95
2022-11-24T00:21:07.206Z,0.95
2022-11-24T00:21:22.466Z,0.95
2022-11-24T00:21:37.073Z,0.95
2022-11-24T00:21:49.866Z,0.97
2022-11-24T00:22:02.762Z,0.98
2022-11-24T00:22:15.552Z,0.95
2022-11-24T00:22:28.268Z,0.96
2022-11-24T00:22:42.308Z,0.95
2022-11-24T00:22:56.073Z,0.95
2022-11-24T00:23:08.853Z,0.95
2022-11-24T00:23:21.812Z,0.93
2022-11-24T00:23:35.130Z,0.93
2022-11-24T00:23:49.308Z,0.92
2022-11-24T00:24:02.633Z,0.92
2022-11-24T00:24:16.559Z,0.92
2022-11-24T00:24:29.289Z,0.92
2022-11-24T00:24:42.017Z,0.92
2022-11-24T00:24:55.057Z,0.92
2022-11-24T00:25:08.335Z,0.92
2022-11-24T00:25:21.109Z,0.92
2022-11-24T00:25:33.861Z,0.91
2022-11-24T00:25:48.122Z,0.90
2022-11-24T00:26:06.877Z,0.90
2022-11-24T00:26:21.922Z,0.89
2022-11-24T00:26:37.509Z,0.90
2022-11-24T00:26:51.452Z,0.89
2022-11-24T00:27:04.411Z,0.90
2022-11-24T00:27:17.387Z,0.90
2022-11-24T00:27:30.131Z,0.90
2022-11-24T00:27:43.097Z,0.91
2022-11-24T00:27:55.870Z,0.91
2022-11-24T00:28:08.630Z,0.91
2022-11-24T00:28:21.401Z,0.93
2022-11-24T00:28:34.892Z,0.92
2022-11-24T00:28:49.949Z,0.92
2022-11-24T00:29:05.278Z,0.93
2022-11-24T00:29:18.301Z,0.93
2022-11-24T00:29:31.158Z,0.95
2022-11-24T00:29:44.058Z,0.95
2022-11-24T00:29:57.834Z,0.96
2022-11-24T00:30:12.494Z,0.94
2022-11-24T00:30:25.706Z,0.95
2022-11-24T00:30:38.624Z,0.95
2022-11-24T00:30:51.492Z,0.96
2022-11-24T00:31:08.082Z,0.96
2022-11-24T00:31:23.793Z,0.96
2022-11-24T00:31:38.127Z,0.95
2022-11-24T00:31:51.993Z,0.96
2022-11-24T00:32:06.675Z,0.96
2022-11-24T00:32:19.467Z,0.95
2022-11-24T00:32:32.233Z,0.97
2022-11-24T00:32:44.987Z,0.95
2022-11-24T00:32:57.787Z,0.95
2022-11-24T00:33:10.618Z,0.94
2022-11-24T00:33:23.361Z,0.93
2022-11-24T00:33:37.080Z,0.93
2022-11-24T00:33:52.366Z,0.91
2022-11-24T00:34:07.220Z,0.92
2022-11-24T00:34:20.035Z,0.91
2022-11-24T00:34:33.423Z,0.90
2022-11-24T00:34:47.445Z,0.90
2022-11-24T00:35:00.169Z,0.91
2022-11-24T00:35:12.976Z,0.91
2022-11-24T00:35:26.743Z,0.91
2022-11-24T00:35:39.585Z,0.90
2022-11-24T00:35:55.750Z,0.90
2022-11-24T00:36:08.849Z,0.90
2022-11-24T00:36:23.696Z,0.88
2022-11-24T00:36:38.291Z,0.89
2022-11-24T00:36:51.030Z,0.87
2022-11-24T00:37:03.851Z,0.88
2022-11-24T00:37:16.562Z,0.87
2022-11-24T00:37:29.403Z,0.87
2022-11-24T00:37:42.246Z,0.88
2022-11-24T00:37:56.246Z,0.87
2022-11-24T00:38:10.038Z,0.88
2022-11-24T00:38:22.819Z,0.88
2022-11-24T00:38:35.635Z,0.88
2022-11-24T00:38:48.838Z,0.90
2022-11-24T00:39:03.669Z,0.89
2022-11-24T00:39:17.364Z,0.88
2022-11-24T00:39:30.390Z,0.89
2022-11-24T00:39:44.122Z,0.90
2022-11-24T00:39:56.911Z,0.91
2022-11-24T00:40:10.207Z,0.92
2022-11-24T00:40:23.041Z,0.92
2022-11-24T00:40:35.962Z,0.90
2022-11-24T00:40:50.195Z,0.91
2022-11-24T00:41:02.959Z,0.91
2022-11-24T00:41:15.751Z,0.91
2022-11-24T00:41:30.645Z,0.90
2022-11-24T00:41:44.007Z,0.91
2022-11-24T00:41:56.837Z,0.91
2022-11-24T00:42:09.565Z,0.91
2022-11-24T00:42:22.257Z,0.90
2022-11-24T00:42:34.966Z,0.91
2022-11-24T00:42:48.157Z,0.92
2022-11-24T00:43:00.900Z,0.92
2022-11-24T00:43:13.644Z,0.92
2022-11-24T00:43:27.437Z,0.92
2022-11-24T00:43:40.348Z,0.93
2022-11-24T00:43:53.700Z,0.92
2022-11-24T00:44:07.001Z,0.93
2022-11-24T00:44:19.767Z,0.91
2022-11-24T00:44:32.592Z,0.90
2022-11-24T00:44:46.482Z,0.90
2022-11-24T00:44:59.263Z,0.89
2022-11-24T00:45:14.137Z,0.89
2022-11-24T00:45:27.170Z,0.87
2022-11-24T00:45:40.006Z,0.86
2022-11-24T00:45:53.039Z,0.86
2022-11-24T00:46:06.414Z,0.84
2022-11-24T00:46:21.105Z,0.85
2022-11-24T00:46:34.833Z,0.83
2022-11-24T00:46:47.870Z,0.82
2022-11-24T00:47:00.891Z,0.82
2022-11-24T00:47:14.027Z,0.81
2022-11-24T00:47:28.867Z,0.82
2022-11-24T00:47:41.558Z,0.83
2022-11-24T00:47:55.307Z,0.83
2022-11-24T00:48:08.126Z,0.83
2022-11-24T00:48:21.074Z,0.84
2022-11-24T00:48:34.152Z,0.84
2022-11-24T00:48:46.953Z,0.84
2022-11-24T00:49:00.526Z,0.83
2022-11-24T00:49:14.260Z,0.83
2022-11-24T00:49:27.411Z,0.83
2022-11-24T00:49:40.091Z,0.83
2022-11-24T00:49:52.854Z,0.83
2022-11-24T00:50:06.536Z,0.84
2022-11-24T00:50:20.190Z,0.84
2022-11-24T00:50:32.959Z,0.83
2022-11-24T00:50:45.718Z,0.83
2022-11-24T00:51:00.951Z,0.83
2022-11-24T00:51:15.896Z,0.85
2022-11-24T00:51:30.494Z,0.85
2022-11-24T00:51:43.296Z,0.85
2022-11-24T00:51:56.013Z,0.85
2022-11-24T00:52:09.784Z,0.86
2022-11-24T00:52:22.565Z,0.87
2022-11-24T00:52:35.270Z,0.86
2022-11-24T00:52:48.341Z,0.86
2022-11-24T00:53:01.144Z,0.87
2022-11-24T00:53:13.827Z,0.87
2022-11-24T00:53:26.972Z,0.88
2022-11-24T00:53:40.063Z,0.88
2022-11-24T00:53:54.408Z,0.88
2022-11-24T00:54:07.178Z,0.88
2022-11-24T00:54:20.042Z,0.89
2022-11-24T00:54:32.977Z,0.89
2022-11-24T00:54:45.796Z,0.90
2022-11-24T00:54:58.581Z,0.90
2022-11-24T00:55:11.308Z,0.90
2022-11-24T00:55:25.112Z,0.90
2022-11-24T00:55:37.864Z,0.89
2022-11-24T00:55:52.948Z,0.89
2022-11-24T00:56:06.579Z,0.90
2022-11-24T00:56:19.506Z,0.91
2022-11-24T00:56:32.509Z,0.90
2022-11-24T00:56:46.276Z,0.91
2022-11-24T00:56:59.055Z,0.91
2022-11-24T00:57:12.121Z,0.93
2022-11-24T00:57:24.997Z,0.93
2022-11-24T00:57:37.783Z,0.93
2022-11-24T00:57:50.648Z,0.94
2022-11-24T00:58:03.434Z,0.95
2022-11-24T00:58:16.216Z,0.94
2022-11-24T00:58:29.940Z,0.94
2022-11-24T00:58:42.912Z,0.95
2022-11-24T00:58:56.771Z,0.95
2022-11-24T00:59:09.942Z,0.96
2022-11-24T00:59:22.676Z,0.97
2022-11-24T00:59:36.429Z,0.97
2022-11-24T00:59:49.150Z,0.98
2022-11-24T01:00:01.948Z,0.99
2022-11-24T01:00:15.712Z,0.99
2022-11-24T01:00:28.425Z,1.01
2022-11-24T01:00:41.184Z,1.02
2022-11-24T01:00:53.925Z,1.03
2022-11-24T01:01:10.602Z,1.03
2022-11-24T01:01:25.346Z,1.04
2022-11-24T01:01:39.104Z,1.04
2022-11-24T01:01:52.186Z,1.04
2022-11-24T01:02:04.994Z,1.05
2022-11-24T01:02:17.849Z,1.05
2022-11-24T01:02:30.682Z,1.05
2022-11-24T01:02:43.638Z,1.05
2022-11-24T01:02:57.556Z,1.05
2022-11-24T01:03:10.751Z,1.06
2022-11-24T01:03:23.441Z,1.06
2022-11-24T01:03:36.337Z,1.06
2022-11-24T01:03:49.282Z,1.07
2022-11-24T01:04:02.301Z,1.07
2022-11-24T01:04:16.267Z,1.07
2022-11-24T01:04:29.031Z,1.07
2022-11-24T01:04:41.822Z,1.07
2022-11-24T01:04:54.869Z,1.08
2022-11-24T01:05:08.464Z,1.09
2022-11-24T01:05:21.269Z,1.10
2022-11-24T01:05:36.668Z,1.09
2022-11-24T01:05:50.555Z,1.10
2022-11-24T01:06:04.882Z,1.11
2022-11-24T01:06:19.564Z,1.11
2022-11-24T01:06:32.896Z,1.12
2022-11-24T01:06:45.998Z,1.11
2022-11-24T01:06:59.777Z,1.12
2022-11-24T01:07:12.709Z,1.12
2022-11-24T01:07:25.543Z,1.12
2022-11-24T01:07:38.499Z,1.13
2022-11-24T01:07:51.256Z,1.12
2022-11-24T01:08:04.185Z,1.13
2022-11-24T01:08:17.369Z,1.13
2022-11-24T01:08:30.166Z,1.12
2022-11-24T01:08:44.602Z,1.13
2022-11-24T01:08:58.076Z,1.13
2022-11-24T01:09:11.503Z,1.14
2022-11-24T01:09:24.323Z,1.14
2022-11-24T01:09:37.901Z,1.14
2022-11-24T01:09:50.710Z,1.14
2022-11-24T01:10:05.182Z,1.13
2022-11-24T01:10:18.128Z,1.14
2022-11-24T01:10:31.995Z,1.14
2022-11-24T01:10:44.767Z,1.15
2022-11-24T01:11:09.015Z,1.15
2022-11-24T01:11:24.393Z,1.15
2022-11-24T01:11:52.073Z,1.15
2022-11-24T01:12:06.011Z,1.15
2022-11-24T01:12:18.784Z,1.14
2022-11-24T01:12:32.425Z,1.14
2022-11-24T01:12:45.130Z,1.14
2022-11-24T01:12:58.123Z,1.14
2022-11-24T01:13:12.703Z,1.12
2022-11-24T01:13:25.446Z,1.14
2022-11-24T01:13:38.838Z,1.13
2022-11-24T01:13:54.772Z,1.12
2022-11-24T01:14:07.552Z,1.12
2022-11-24T01:14:21.448Z,1.12
2022-11-24T01:14:34.412Z,1.12
2022-11-24T01:14:47.274Z,1.13
2022-11-24T01:15:00.035Z,1.13
2022-11-24T01:15:12.777Z,1.12
2022-11-24T01:15:26.640Z,1.14
2022-11-24T01:15:40.480Z,1.14
2022-11-24T01:15:53.383Z,1.14
2022-11-24T01:16:06.644Z,1.15
2022-11-24T01:16:22.569Z,1.15
2022-11-24T01:16:35.793Z,1.16
2022-11-24T01:16:50.014Z,1.17
2022-11-24T01:17:02.717Z,1.16
2022-11-24T01:17:15.507Z,1.17
2022-11-24T01:17:28.228Z,1.17
2022-11-24T01:17:41.007Z,1.17
2022-11-24T01:17:53.964Z,1.15
2022-11-24T01:18:08.297Z,1.16
2022-11-24T01:18:21.052Z,1.14
2022-11-24T01:18:34.088Z,1.14
2022-11-24T01:18:47.282Z,1.14
2022-11-24T01:19:00.755Z,1.14
2022-11-24T01:19:13.537Z,1.13
2022-11-24T01:19:26.336Z,1.13
2022-11-24T01:19:40.078Z,1.10
2022-11-24T01:19:53.164Z,1.10
2022-11-24T01:20:07.020Z,1.12
2022-11-24T01:20:19.776Z,1.11
2022-11-24T01:20:32.547Z,1.10
2022-11-24T01:20:45.358Z,1.11
2022-11-24T01:20:58.164Z,1.10
2022-11-24T01:21:11.003Z,1.10
2022-11-24T01:21:25.092Z,1.08
2022-11-24T01:21:37.881Z,1.07
2022-11-24T01:21:50.702Z,1.07
2022-11-24T01:22:03.456Z,1.06
2022-11-24T01:22:16.478Z,1.07
2022-11-24T01:22:29.661Z,1.05
2022-11-24T01:22:42.472Z,1.05
2022-11-24T01:22:56.176Z,1.06
2022-11-24T01:23:08.865Z,1.05
2022-11-24T01:23:21.612Z,1.05
2022-11-24T01:23:34.481Z,1.04
2022-11-24T01:23:47.225Z,1.04
2022-11-24T01:23:59.991Z,1.05
2022-11-24T01:24:14.247Z,1.05
2022-11-24T01:24:27.310Z,1.04
2022-11-24T01:24:40.107Z,1.04
2022-11-24T01:24:52.883Z,1.04
2022-11-24T01:25:06.427Z,1.03
2022-11-24T01:25:19.284Z,1.04
2022-11-24T01:25:32.078Z,1.05
2022-11-24T01:25:45.842Z,1.06
2022-11-24T01:25:58.620Z,1.06
2022-11-24T01:26:14.556Z,1.06
2022-11-24T01:26:27.269Z,1.06
2022-11-24T01:26:40.329Z,1.04
2022-11-24T01:26:53.023Z,1.04
2022-11-24T01:27:05.838Z,1.04
2022-11-24T01:27:19.562Z,1.03
2022-11-24T01:27:32.417Z,1.02
2022-11-24T01:27:45.252Z,1.01
2022-11-24T01:27:57.961Z,1.01
2022-11-24T01:28:10.746Z,1.02
2022-11-24T01:28:23.473Z,1.01
2022-11-24T01:28:37.029Z,1.01
2022-11-24T01:28:55.148Z,0.99
2022-11-24T01:29:08.497Z,0.98
2022-11-24T01:29:21.282Z,0.97
2022-11-24T01:29:34.166Z,0.98
2022-11-24T01:29:46.988Z,0.98
2022-11-24T01:29:59.725Z,0.98
2022-11-24T01:30:12.631Z,0.97
2022-11-24T01:30:25.400Z,0.98
2022-11-24T01:30:38.196Z,0.99
2022-11-24T01:30:58.687Z,0.97
2022-11-24T01:31:12.157Z,0.97
2022-11-24T01:31:26.064Z,0.97
2022-11-24T01:31:39.003Z,0.97
2022-11-24T01:31:52.908Z,0.97
2022-11-24T01:32:05.725Z,0.98
2022-11-24T01:32:18.588Z,0.97
2022-11-24T01:32:33.314Z,0.98
2022-11-24T01:32:46.054Z,0.98
2022-11-24T01:32:58.760Z,0.96
2022-11-24T01:33:11.477Z,0.96
2022-11-24T01:33:24.558Z,0.95
2022-11-24T01:33:38.771Z,0.94
2022-11-24T01:33:51.769Z,0.93
2022-11-24T01:34:04.531Z,0.91
2022-11-24T01:34:17.285Z,0.90
2022-11-24T01:34:30.276Z,0.90
2022-11-24T01:34:43.342Z,0.90
2022-11-24T01:34:57.467Z,0.90
2022-11-24T01:35:10.539Z,0.88
2022-11-24T01:35:23.321Z,0.90
2022-11-24T01:35:36.886Z,0.89
2022-11-24T01:35:49.630Z,0.90
2022-11-24T01:36:02.758Z,0.89
2022-11-24T01:36:16.652Z,0.89
2022-11-24T01:36:29.527Z,0.88
2022-11-24T01:36:42.292Z,0.89
2022-11-24T01:36:54.997Z,0.88
2022-11-24T01:37:07.742Z,0.89
2022-11-24T01:37:20.460Z,0.90
2022-11-24T01:37:33.445Z,0.91
2022-11-24T01:37:47.444Z,0.91
2022-11-24T01:38:00.328Z,0.92
2022-11-24T01:38:13.010Z,0.92
2022-11-24T01:38:26.324Z,0.91
2022-11-24T01:38:39.019Z,0.90
2022-11-24T01:38:51.999Z,0.89
2022-11-24T01:39:04.851Z,0.90
2022-11-24T01:39:18.608Z,0.91
2022-11-24T01:39:31.348Z,0.91
2022-11-24T01:39:44.066Z,0.91
2022-11-24T01:39:56.944Z,0.91
2022-11-24T01:40:11.218Z,0.91
2022-11-24T01:40:24.019Z,0.91
2022-11-24T01:40:36.743Z,0.90
2022-11-24T01:40:50.843Z,0.89
2022-11-24T01:41:06.412Z,0.90
2022-11-24T01:41:22.281Z,0.91
2022-11-24T01:41:36.025Z,0.90
2022-11-24T01:41:48.814Z,0.91
2022-11-24T01:42:01.943Z,0.93
2022-11-24T01:42:15.168Z,0.93
2022-11-24T01:42:37.749Z,0.94
2022-11-24T01:42:53.504Z,0.94
2022-11-24T01:43:17.290Z,0.94
2022-11-24T01:43:30.107Z,0.93
2022-11-24T01:43:44.666Z,0.92
2022-11-24T01:43:57.874Z,0.92
2022-11-24T01:44:22.559Z,0.91
2022-11-24T01:44:36.639Z,0.89
2022-11-24T01:45:12.393Z,0.87
2022-11-24T01:45:37.104Z,0.86
2022-11-24T01:45:51.132Z,0.86
2022-11-24T01:46:15.004Z,0.86
2022-11-24T01:46:32.604Z,0.85
2022-11-24T01:46:48.354Z,0.85
2022-11-24T01:47:06.196Z,0.85
2022-11-24T01:47:34.280Z,0.85
2022-11-24T01:47:48.101Z,0.87
2022-11-24T01:48:05.963Z,0.88
2022-11-24T01:48:27.274Z,0.89
2022-11-24T01:48:44.871Z,0.89
2022-11-24T01:49:04.909Z,0.88
2022-11-24T01:49:22.049Z,0.88
2022-11-24T01:49:39.840Z,0.88
2022-11-24T01:49:55.207Z,0.87
2022-11-24T01:50:16.714Z,0.87
2022-11-24T01:50:29.507Z,0.86
2022-11-24T01:50:44.609Z,0.85
2022-11-24T01:51:06.762Z,0.84
2022-11-24T01:51:24.571Z,0.84
2022-11-24T01:51:42.330Z,0.84
2022-11-24T01:52:00.804Z,0.84
2022-11-24T01:52:17.225Z,0.85
2022-11-24T01:52:35.224Z,0.84
2022-11-24T01:52:51.692Z,0.86
2022-11-24T01:53:05.215Z,0.86
2022-11-24T01:53:18.034Z,0.85
2022-11-24T01:53:32.108Z,0.85
2022-11-24T01:53:49.456Z,0.85
2022-11-24T01:54:08.073Z,0.83
2022-11-24T01:54:25.371Z,0.85
2022-11-24T01:54:41.658Z,0.84
2022-11-24T01:54:58.244Z,0.84
2022-11-24T01:55:18.389Z,0.85
2022-11-24T01:55:35.075Z,0.85
2022-11-24T01:55:48.272Z,0.85
2022-11-24T01:56:01.020Z,0.85
2022-11-24T01:56:14.460Z,0.86
2022-11-24T01:56:31.365Z,0.88
2022-11-24T01:56:49.005Z,0.88
2022-11-24T01:57:05.988Z,0.88
2022-11-24T01:57:25.123Z,0.89
2022-11-24T01:57:42.621Z,0.90
2022-11-24T01:58:00.060Z,0.90
2022-11-24T01:58:16.914Z,0.90
2022-11-24T01:58:34.143Z,0.90
2022-11-24T01:58:49.028Z,0.94
2022-11-24T01:59:04.079Z,0.93
2022-11-24T01:59:19.684Z,0.94
2022-11-24T01:59:33.227Z,0.94
2022-11-24T01:59:50.045Z,0.93
2022-11-24T02:00:06.943Z,0.93
2022-11-24T02:00:19.940Z,0.93
2022-11-24T02:00:34.832Z,0.93
2022-11-24T02:00:47.960Z,0.93
2022-11-24T02:01:00.964Z,0.93
2022-11-24T02:01:14.968Z,0.92
2022-11-24T02:01:29.403Z,0.92
2022-11-24T02:01:42.346Z,0.92
2022-11-24T02:01:57.022Z,0.94
2022-11-24T02:02:11.038Z,0.94
2022-11-24T02:02:24.771Z,0.93
2022-11-24T02:02:39.596Z,0.93
2022-11-24T02:02:53.694Z,0.93
2022-11-24T02:03:07.233Z,0.93
2022-11-24T02:03:24.193Z,0.94
2022-11-24T02:03:40.407Z,0.93
2022-11-24T02:03:53.586Z,0.95
2022-11-24T02:04:12.156Z,0.95
2022-11-24T02:04:29.551Z,0.96
2022-11-24T02:04:43.803Z,0.96
2022-11-24T02:04:59.129Z,0.97
2022-11-24T02:05:18.194Z,0.97
2022-11-24T02:05:35.647Z,0.98
2022-11-24T02:05:58.703Z,0.98
2022-11-24T02:06:14.431Z,1.00
2022-11-24T02:06:29.659Z,1.01
2022-11-24T02:06:45.476Z,1.01
2022-11-24T02:07:01.782Z,1.02
2022-11-24T02:07:16.381Z,1.03
2022-11-24T02:07:29.638Z,1.05
2022-11-24T02:07:42.570Z,1.05
2022-11-24T02:07:59.537Z,1.04
2022-11-24T02:08:19.613Z,1.02
2022-11-24T02:08:41.212Z,1.03
2022-11-24T02:08:59.983Z,1.04
2022-11-24T02:09:19.991Z,1.04
2022-11-24T02:09:37.782Z,1.04
2022-11-24T02:09:55.630Z,1.04
2022-11-24T02:10:13.027Z,1.05
2022-11-24T02:10:26.803Z,1.06
2022-11-24T02:10:39.722Z,1.05
2022-11-24T02:10:52.527Z,1.06
2022-11-24T02:11:06.046Z,1.06
2022-11-24T02:11:21.300Z,1.06
2022-11-24T02:11:38.645Z,1.05
2022-11-24T02:11:53.696Z,1.05
2022-11-24T02:12:07.189Z,1.05
2022-11-24T02:12:20.430Z,1.03
2022-11-24T02:12:34.003Z,1.02
2022-11-24T02:12:49.217Z,1.02
2022-11-24T02:13:03.229Z,1.01
2022-11-24T02:13:16.479Z,1.01
2022-11-24T02:13:29.580Z,1.00
2022-11-24T02:13:43.750Z,1.03
2022-11-24T02:13:57.890Z,1.03
2022-11-24T02:14:15.004Z,1.02
2022-11-24T02:14:28.316Z,1.01
2022-11-24T02:14:43.658Z,0.99
2022-11-24T02:14:56.991Z,0.98
2022-11-24T02:15:11.950Z,0.98
2022-11-24T02:15:25.470Z,0.98
2022-11-24T02:15:38.442Z,0.98
2022-11-24T02:15:54.379Z,0.96
2022-11-24T02:16:10.641Z,0.98
2022-11-24T02:16:23.927Z,0.97
2022-11-24T02:16:37.747Z,0.99
2022-11-24T02:16:51.742Z,1.01
2022-11-24T02:17:04.467Z,1.01
2022-11-24T02:17:18.271Z,1.01
2022-11-24T02:17:31.090Z,0.99
2022-11-24T02:17:44.238Z,0.99
2022-11-24T02:17:59.406Z,0.99
2022-11-24T02:18:12.266Z,0.99
2022-11-24T02:18:25.021Z,0.97
2022-11-24T02:18:38.911Z,0.97
2022-11-24T02:18:52.145Z,0.95
2022-11-24T02:19:14.107Z,0.95
2022-11-24T02:19:37.746Z,0.94
2022-11-24T02:19:55.880Z,0.93
2022-11-24T02:20:10.888Z,0.92
2022-11-24T02:20:23.722Z,0.93
2022-11-24T02:20:38.241Z,0.92
2022-11-24T02:20:51.184Z,0.92
2022-11-24T02:21:04.872Z,0.91
2022-11-24T02:21:18.294Z,0.91
2022-11-24T02:21:30.988Z,0.91
2022-11-24T02:21:43.734Z,0.90
2022-11-24T02:21:56.404Z,0.89
2022-11-24T02:22:14.536Z,0.90
2022-11-24T02:22:40.290Z,0.89
2022-11-24T02:23:00.628Z,0.90
2022-11-24T02:23:20.182Z,0.91
2022-11-24T02:23:44.170Z,0.92
2022-11-24T02:24:03.671Z,0.94
2022-11-24T02:24:24.349Z,0.94
2022-11-24T02:24:46.053Z,0.94
2022-11-24T02:25:06.846Z,0.94
2022-11-24T02:25:28.983Z,0.94
2022-11-24T02:25:50.592Z,0.95
2022-11-24T02:26:10.302Z,0.94
2022-11-24T02:26:34.560Z,0.93
2022-11-24T02:26:52.020Z,0.91
2022-11-24T02:27:04.662Z,0.90
2022-11-24T02:27:17.512Z,0.88
2022-11-24T02:27:30.854Z,0.87
2022-11-24T02:27:48.197Z,0.87
2022-11-24T02:28:08.653Z,0.84
2022-11-24T02:28:23.564Z,0.86
2022-11-24T02:28:37.449Z,0.85
2022-11-24T02:28:50.350Z,0.85
2022-11-24T02:29:03.118Z,0.86
2022-11-24T02:29:16.149Z,0.86
2022-11-24T02:29:28.780Z,0.85
2022-11-24T02:29:41.697Z,0.84
2022-11-24T02:29:55.330Z,0.84
2022-11-24T02:30:08.583Z,0.83
2022-11-24T02:30:21.229Z,0.83
2022-11-24T02:30:34.224Z,0.83
2022-11-24T02:30:47.787Z,0.82
2022-11-24T02:31:01.940Z,0.82
2022-11-24T02:31:14.662Z,0.81
2022-11-24T02:31:29.058Z,0.81
2022-11-24T02:31:47.607Z,0.81
2022-11-24T02:32:05.761Z,0.79
2022-11-24T02:32:19.984Z,0.79
2022-11-24T02:32:33.931Z,0.79
2022-11-24T02:32:46.795Z,0.79
2022-11-24T02:33:00.969Z,0.79
2022-11-24T02:33:14.117Z,0.78
2022-11-24T02:33:27.282Z,0.78
2022-11-24T02:33:40.891Z,0.78
2022-11-24T02:33:54.909Z,0.78
2022-11-24T02:34:07.537Z,0.78
2022-11-24T02:34:20.536Z,0.78
2022-11-24T02:34:33.453Z,0.77
2022-11-24T02:34:47.245Z,0.76
2022-11-24T02:35:01.438Z,0.77
2022-11-24T02:35:14.799Z,0.76
2022-11-24T02:35:28.219Z,0.74
2022-11-24T02:35:41.218Z,0.73
2022-11-24T02:35:53.899Z,0.74
2022-11-24T02:36:07.329Z,0.73
2022-11-24T02:36:20.927Z,0.73
2022-11-24T02:36:33.562Z,0.74
2022-11-24T02:36:46.149Z,0.75
2022-11-24T02:36:58.739Z,0.76
2022-11-24T02:37:11.707Z,0.76
2022-11-24T02:37:24.330Z,0.76
2022-11-24T02:37:36.869Z,0.76
2022-11-24T02:37:50.472Z,0.74
2022-11-24T02:38:03.164Z,0.74
2022-11-24T02:38:15.862Z,0.74
2022-11-24T02:38:31.447Z,0.74
2022-11-24T02:38:44.031Z,0.74
2022-11-24T02:38:56.643Z,0.73
2022-11-24T02:39:11.357Z,0.74
2022-11-24T02:39:24.939Z,0.72
2022-11-24T02:39:37.558Z,0.73
2022-11-24T02:39:50.146Z,0.73
2022-11-24T02:40:02.757Z,0.72
2022-11-24T02:40:16.565Z,0.73
2022-11-24T02:40:31.017Z,0.73
2022-11-24T02:40:47.969Z,0.73
2022-11-24T02:41:04.964Z,0.74
2022-11-24T02:41:20.295Z,0.75
2022-11-24T02:41:34.325Z,0.76
2022-11-24T02:41:52.280Z,0.75
2022-11-24T02:42:08.476Z,0.74
2022-11-24T02:42:21.545Z,0.75
2022-11-24T02:42:38.377Z,0.75
2022-11-24T02:42:54.853Z,0.76
2022-11-24T02:43:11.248Z,0.76
2022-11-24T02:43:24.379Z,0.75
2022-11-24T02:43:41.061Z,0.75
2022-11-24T02:43:57.496Z,0.75
2022-11-24T02:44:10.837Z,0.73
2022-11-24T02:44:27.391Z,0.73
2022-11-24T02:44:43.857Z,0.72
2022-11-24T02:45:00.515Z,0.72
2022-11-24T02:45:15.311Z,0.72
2022-11-24T02:45:29.707Z,0.72
2022-11-24T02:45:42.344Z,0.70
2022-11-24T02:45:55.010Z,0.71
2022-11-24T02:46:08.347Z,0.71
2022-11-24T02:46:21.482Z,0.71
2022-11-24T02:46:34.198Z,0.72
2022-11-24T02:46:47.813Z,0.72
2022-11-24T02:47:05.440Z,0.72
2022-11-24T02:47:18.061Z,0.72
2022-11-24T02:47:30.687Z,0.71
2022-11-24T02:47:43.285Z,0.73
2022-11-24T02:47:55.872Z,0.73
2022-11-24T02:48:08.663Z,0.73
2022-11-24T02:48:22.228Z,0.74
2022-11-24T02:48:34.861Z,0.74
2022-11-24T02:48:47.619Z,0.76
2022-11-24T02:49:00.243Z,0.75
2022-11-24T02:49:12.974Z,0.76
2022-11-24T02:49:25.561Z,0.77
2022-11-24T02:49:38.714Z,0.77
2022-11-24T02:49:51.304Z,0.79
2022-11-24T02:50:05.317Z,0.79
2022-11-24T02:50:18.001Z,0.79
2022-11-24T02:50:30.569Z,0.81
2022-11-24T02:50:43.582Z,0.81
2022-11-24T02:50:56.491Z,0.81
2022-11-24T02:51:09.435Z,0.83
2022-11-24T02:51:23.100Z,0.84
2022-11-24T02:51:35.687Z,0.83
2022-11-24T02:51:48.233Z,0.84
2022-11-24T02:52:01.016Z,0.85
2022-11-24T02:52:13.725Z,0.86
2022-11-24T02:52:26.395Z,0.86
2022-11-24T02:52:39.023Z,0.88
2022-11-24T02:52:52.640Z,0.88
2022-11-24T02:53:05.170Z,0.89
2022-11-24T02:53:17.858Z,0.89
2022-11-24T02:53:30.432Z,0.91
2022-11-24T02:53:43.040Z,0.90
2022-11-24T02:53:55.619Z,0.91
2022-11-24T02:54:09.202Z,0.92
2022-11-24T02:54:21.887Z,0.93
2022-11-24T02:54:35.065Z,0.92
2022-11-24T02:54:47.825Z,0.92
2022-11-24T02:55:00.449Z,0.93
2022-11-24T02:55:13.321Z,0.92
2022-11-24T02:55:26.291Z,0.92
2022-11-24T02:55:39.851Z,0.91
2022-11-24T02:55:53.153Z,0.91
2022-11-24T02:56:06.299Z,0.91
2022-11-24T02:56:18.899Z,0.90
2022-11-24T02:56:31.479Z,0.91
2022-11-24T02:56:45.445Z,0.91
2022-11-24T02:56:58.132Z,0.91
2022-11-24T02:57:12.150Z,0.92
2022-11-24T02:57:24.732Z,0.92
2022-11-24T02:57:37.332Z,0.92
2022-11-24T02:57:49.882Z,0.92
2022-11-24T02:58:02.641Z,0.93
2022-11-24T02:58:15.851Z,0.94
2022-11-24T02:58:29.489Z,0.95
2022-11-24T02:58:42.083Z,0.96
2022-11-24T02:58:54.691Z,0.96
2022-11-24T02:59:07.281Z,0.96
2022-11-24T02:59:20.169Z,0.97
2022-11-24T02:59:32.697Z,0.98
2022-11-24T02:59:46.635Z,0.99
2022-11-24T03:00:00.303Z,0.98
2022-11-24T03:00:13.691Z,1.00
2022-11-24T03:00:26.280Z,1.01
2022-11-24T03:00:38.913Z,1.01
2022-11-24T03:00:54.473Z,1.02
2022-11-24T03:01:07.257Z,1.01
2022-11-24T03:01:19.966Z,1.03
2022-11-24T03:01:33.604Z,1.04
2022-11-24T03:01:46.362Z,1.05
2022-11-24T03:01:59.170Z,1.05
2022-11-24T03:02:11.820Z,1.06
2022-11-24T03:02:24.487Z,1.05
2022-11-24T03:02:37.237Z,1.06
2022-11-24T03:02:50.037Z,1.05
2022-11-24T03:03:04.589Z,1.03
2022-11-24T03:03:17.325Z,1.02
2022-11-24T03:03:29.972Z,1.02
2022-11-24T03:03:42.863Z,1.01
2022-11-24T03:03:55.435Z,1.01
2022-11-24T03:04:08.293Z,0.99
2022-11-24T03:04:20.868Z,0.99
2022-11-24T03:04:33.708Z,0.98
2022-11-24T03:04:47.585Z,0.97
2022-11-24T03:05:00.182Z,0.95
2022-11-24T03:05:13.584Z,0.94
2022-11-24T03:05:26.181Z,0.93
2022-11-24T03:05:38.798Z,0.92
2022-11-24T03:05:51.578Z,0.91
2022-11-24T03:06:04.419Z,0.89
2022-11-24T03:06:18.001Z,0.89
2022-11-24T03:06:30.588Z,0.89
2022-11-24T03:06:43.479Z,0.90
2022-11-24T03:06:56.444Z,0.90
2022-11-24T03:07:09.794Z,0.89
2022-11-24T03:07:23.246Z,0.89
2022-11-24T03:07:35.915Z,0.88
2022-11-24T03:07:49.561Z,0.88
2022-11-24T03:08:02.253Z,0.89